sensor_id;sensor_type;location;lat;lon;timestamp;pressure;altitude;pressure_sealevel;temperature;humidity
75640;BME280;64233;51.486;6.332;2023-08-17T00:02:16;101672.88;;;16.66;100.00
75640;BME280;64233;51.486;6.332;2023-08-17T00:04:41;101669.34;;;16.61;100.00
75640;BME280;64233;51.486;6.332;2023-08-17T00:07:06;101665.03;;;16.65;100.00
75640;BME280;64233;51.486;6.332;2023-08-17T00:09:32;101678.31;;;16.66;100.00
75640;BME280;64233;51.486;6.332;2023-08-17T00:11:58;101677.50;;;16.66;100.00
75640;BME280;64233;51.486;6.332;2023-08-17T00:14:23;101676.41;;;16.67;100.00
75640;BME280;64233;51.486;6.332;2023-08-17T00:16:49;101678.03;;;16.68;100.00
75640;BME280;64233;51.486;6.332;2023-08-17T00:19:15;101677.22;;;16.67;100.00
75640;BME280;64233;51.486;6.332;2023-08-17T00:21:40;101676.41;;;16.67;100.00
75640;BME280;64233;51.486;6.332;2023-08-17T00:24:06;101673.44;;;16.63;100.00
75640;BME280;64233;51.486;6.332;2023-08-17T00:26:31;101680.75;;;16.63;100.00
75640;BME280;64233;51.486;6.332;2023-08-17T00:28:56;101680.72;;;16.58;100.00
75640;BME280;64233;51.486;6.332;2023-08-17T00:31:22;101677.72;;;16.54;100.00
75640;BME280;64233;51.486;6.332;2023-08-17T00:33:47;101672.88;;;16.56;100.00
75640;BME280;64233;51.486;6.332;2023-08-17T00:36:12;101674.50;;;16.52;100.00
75640;BME280;64233;51.486;6.332;2023-08-17T00:38:38;101681.53;;;16.48;100.00
75640;BME280;64233;51.486;6.332;2023-08-17T00:41:03;101676.38;;;16.46;100.00
75640;BME280;64233;51.486;6.332;2023-08-17T00:43:28;101669.06;;;16.42;100.00
75640;BME280;64233;51.486;6.332;2023-08-17T00:45:53;101666.03;;;16.33;100.00
75640;BME280;64233;51.486;6.332;2023-08-17T00:48:19;101671.19;;;16.29;100.00
75640;BME280;64233;51.486;6.332;2023-08-17T00:50:47;101673.88;;;16.24;100.00
75640;BME280;64233;51.486;6.332;2023-08-17T00:53:14;101670.34;;;16.13;100.00
75640;BME280;64233;51.486;6.332;2023-08-17T00:55:41;101669.22;;;16.04;100.00
75640;BME280;64233;51.486;6.332;2023-08-17T00:58:07;101667.06;;;16.01;100.00
75640;BME280;64233;51.486;6.332;2023-08-17T01:00:32;101671.34;;;15.92;100.00
75640;BME280;64233;51.486;6.332;2023-08-17T01:02:58;101669.47;;;15.92;100.00
75640;BME280;64233;51.486;6.332;2023-08-17T01:05:23;101666.97;;;15.80;100.00
75640;BME280;64233;51.486;6.332;2023-08-17T01:07:49;101673.47;;;15.79;100.00
75640;BME280;64233;51.486;6.332;2023-08-17T01:10:14;101662.31;;;15.76;100.00
75640;BME280;64233;51.486;6.332;2023-08-17T01:13:01;101666.94;;;15.75;100.00
75640;BME280;64233;51.486;6.332;2023-08-17T01:15:35;101656.09;;;15.75;100.00
75640;BME280;64233;51.486;6.332;2023-08-17T01:18:11;101657.13;;;15.69;100.00
75640;BME280;64233;51.486;6.332;2023-08-17T01:20:38;101655.50;;;15.63;100.00
75640;BME280;64233;51.486;6.332;2023-08-17T01:23:07;101652.00;;;15.62;100.00
75640;BME280;64233;51.486;6.332;2023-08-17T01:25:32;101647.38;;;15.63;100.00
75640;BME280;64233;51.486;6.332;2023-08-17T01:28:04;101649.28;;;15.62;100.00
75640;BME280;64233;51.486;6.332;2023-08-17T01:30:33;101662.00;;;15.67;100.00
75640;BME280;64233;51.486;6.332;2023-08-17T01:33:09;101652.78;;;15.63;100.00
75640;BME280;64233;51.486;6.332;2023-08-17T01:35:49;101657.69;;;15.66;100.00
75640;BME280;64233;51.486;6.332;2023-08-17T01:38:20;101659.84;;;15.64;100.00
75640;BME280;64233;51.486;6.332;2023-08-17T01:40:47;101662.28;;;15.65;100.00
75640;BME280;64233;51.486;6.332;2023-08-17T01:43:13;101655.75;;;15.61;100.00
75640;BME280;64233;51.486;6.332;2023-08-17T01:45:40;101655.75;;;15.61;100.00
75640;BME280;64233;51.486;6.332;2023-08-17T01:48:05;101659.56;;;15.65;100.00
75640;BME280;64233;51.486;6.332;2023-08-17T01:50:31;101660.94;;;15.68;100.00
75640;BME280;64233;51.486;6.332;2023-08-17T01:52:56;101665.00;;;15.65;100.00
75640;BME280;64233;51.486;6.332;2023-08-17T01:55:21;101662.84;;;15.73;100.00
75640;BME280;64233;51.486;6.332;2023-08-17T01:57:50;101663.16;;;15.76;100.00
75640;BME280;64233;51.486;6.332;2023-08-17T02:00:15;101653.41;;;15.75;100.00
75640;BME280;64233;51.486;6.332;2023-08-17T02:02:41;101662.31;;;15.76;100.00
75640;BME280;64233;51.486;6.332;2023-08-17T02:05:07;101656.97;;;15.81;100.00
75640;BME280;64233;51.486;6.332;2023-08-17T02:07:32;101660.75;;;15.80;100.00
75640;BME280;64233;51.486;6.332;2023-08-17T02:09:58;101656.41;;;15.79;100.00
75640;BME280;64233;51.486;6.332;2023-08-17T02:12:24;101651.22;;;15.77;100.00
75640;BME280;64233;51.486;6.332;2023-08-17T02:14:49;101656.63;;;15.77;100.00
75640;BME280;64233;51.486;6.332;2023-08-17T02:17:14;101639.31;;;15.73;100.00
75640;BME280;64233;51.486;6.332;2023-08-17T02:19:42;101644.97;;;15.72;100.00
75640;BME280;64233;51.486;6.332;2023-08-17T02:22:07;101641.16;;;15.67;100.00
75640;BME280;64233;51.486;6.332;2023-08-17T02:24:32;101640.91;;;15.69;100.00
75640;BME280;64233;51.486;6.332;2023-08-17T02:26:58;101642.00;;;15.68;100.00
75640;BME280;64233;51.486;6.332;2023-08-17T02:29:23;101641.44;;;15.66;100.00
75640;BME280;64233;51.486;6.332;2023-08-17T02:31:48;101641.69;;;15.64;100.00
75640;BME280;64233;51.486;6.332;2023-08-17T02:34:13;101632.75;;;15.59;100.00
75640;BME280;64233;51.486;6.332;2023-08-17T02:36:39;101630.84;;;15.54;100.00
75640;BME280;64233;51.486;6.332;2023-08-17T02:39:04;101637.56;;;15.46;100.00
75640;BME280;64233;51.486;6.332;2023-08-17T02:41:30;101625.38;;;15.44;100.00
75640;BME280;64233;51.486;6.332;2023-08-17T02:43:57;101623.75;;;15.43;100.00
75640;BME280;64233;51.486;6.332;2023-08-17T02:46:22;101626.69;;;15.36;100.00
75640;BME280;64233;51.486;6.332;2023-08-17T02:48:47;101623.44;;;15.34;100.00
75640;BME280;64233;51.486;6.332;2023-08-17T02:51:13;101625.31;;;15.33;100.00
75640;BME280;64233;51.486;6.332;2023-08-17T02:53:38;101624.50;;;15.33;100.00
75640;BME280;64233;51.486;6.332;2023-08-17T02:56:03;101627.47;;;15.31;100.00
75640;BME280;64233;51.486;6.332;2023-08-17T02:58:29;101622.88;;;15.32;100.00
75640;BME280;64233;51.486;6.332;2023-08-17T03:00:54;101630.72;;;15.33;100.00
75640;BME280;64233;51.486;6.332;2023-08-17T03:03:20;101629.91;;;15.33;100.00
75640;BME280;64233;51.486;6.332;2023-08-17T03:05:45;101628.81;;;15.29;100.00
75640;BME280;64233;51.486;6.332;2023-08-17T03:08:10;101626.91;;;15.29;100.00
75640;BME280;64233;51.486;6.332;2023-08-17T03:10:37;101636.13;;;15.28;100.00
75640;BME280;64233;51.486;6.332;2023-08-17T03:13:03;101631.47;;;15.24;100.00
75640;BME280;64233;51.486;6.332;2023-08-17T03:15:28;101636.38;;;15.27;100.00
75640;BME280;64233;51.486;6.332;2023-08-17T03:17:53;101634.19;;;15.24;100.00
75640;BME280;64233;51.486;6.332;2023-08-17T03:20:18;101630.66;;;15.23;100.00
75640;BME280;64233;51.486;6.332;2023-08-17T03:22:44;101634.69;;;15.21;100.00
75640;BME280;64233;51.486;6.332;2023-08-17T03:25:09;101632.78;;;15.16;100.00
75640;BME280;64233;51.486;6.332;2023-08-17T03:27:34;101630.81;;;15.06;100.00
75640;BME280;64233;51.486;6.332;2023-08-17T03:29:59;101628.66;;;15.03;100.00
75640;BME280;64233;51.486;6.332;2023-08-17T03:32:25;101635.09;;;14.97;100.00
75640;BME280;64233;51.486;6.332;2023-08-17T03:34:50;101631.56;;;14.96;100.00
75640;BME280;64233;51.486;6.332;2023-08-17T03:37:15;101631.56;;;14.91;100.00
75640;BME280;64233;51.486;6.332;2023-08-17T03:39:41;101628.50;;;14.83;100.00
75640;BME280;64233;51.486;6.332;2023-08-17T03:42:07;101635.00;;;14.82;100.00
75640;BME280;64233;51.486;6.332;2023-08-17T03:44:32;101634.94;;;14.76;100.00
75640;BME280;64233;51.486;6.332;2023-08-17T03:46:57;101641.72;;;14.79;100.00
75640;BME280;64233;51.486;6.332;2023-08-17T03:49:22;101632.22;;;14.76;100.00
75640;BME280;64233;51.486;6.332;2023-08-17T03:51:48;101636.53;;;14.72;100.00
75640;BME280;64233;51.486;6.332;2023-08-17T03:54:13;101637.31;;;14.73;100.00
75640;BME280;64233;51.486;6.332;2023-08-17T03:56:38;101640.28;;;14.71;100.00
75640;BME280;64233;51.486;6.332;2023-08-17T03:59:04;101640.28;;;14.71;100.00
75640;BME280;64233;51.486;6.332;2023-08-17T04:01:29;101640.00;;;14.68;100.00
75640;BME280;64233;51.486;6.332;2023-08-17T04:03:54;101644.84;;;14.66;100.00
75640;BME280;64233;51.486;6.332;2023-08-17T04:06:20;101640.78;;;14.63;100.00
75640;BME280;64233;51.486;6.332;2023-08-17T04:08:45;101639.88;;;14.57;100.00
75640;BME280;64233;51.486;6.332;2023-08-17T04:11:11;101647.41;;;14.55;100.00
75640;BME280;64233;51.486;6.332;2023-08-17T04:13:36;101647.94;;;14.52;100.00
75640;BME280;64233;51.486;6.332;2023-08-17T04:16:01;101653.59;;;14.51;100.00
75640;BME280;64233;51.486;6.332;2023-08-17T04:18:26;101651.44;;;14.53;100.00
75640;BME280;64233;51.486;6.332;2023-08-17T04:20:52;101659.88;;;14.56;100.00
75640;BME280;64233;51.486;6.332;2023-08-17T04:23:17;101650.63;;;14.52;100.00
75640;BME280;64233;51.486;6.332;2023-08-17T04:25:43;101642.00;;;14.50;100.00
75640;BME280;64233;51.486;6.332;2023-08-17T04:28:08;101648.72;;;14.48;100.00
75640;BME280;64233;51.486;6.332;2023-08-17T04:30:34;101653.59;;;14.51;100.00
75640;BME280;64233;51.486;6.332;2023-08-17T04:32:59;101653.59;;;14.51;100.00
75640;BME280;64233;51.486;6.332;2023-08-17T04:35:24;101655.53;;;14.55;100.00
75640;BME280;64233;51.486;6.332;2023-08-17T04:37:50;101648.81;;;14.58;100.00
75640;BME280;64233;51.486;6.332;2023-08-17T04:40:15;101657.44;;;14.60;100.00
75640;BME280;64233;51.486;6.332;2023-08-17T04:42:40;101649.44;;;14.65;100.00
75640;BME280;64233;51.486;6.332;2023-08-17T04:45:06;101662.69;;;14.67;100.00
75640;BME280;64233;51.486;6.332;2023-08-17T04:47:32;101660.78;;;14.67;100.00
75640;BME280;64233;51.486;6.332;2023-08-17T04:49:57;101652.19;;;14.70;100.00
75640;BME280;64233;51.486;6.332;2023-08-17T04:52:22;101656.50;;;14.71;100.00
75640;BME280;64233;51.486;6.332;2023-08-17T04:54:48;101663.28;;;14.74;100.00
75640;BME280;64233;51.486;6.332;2023-08-17T04:57:13;101657.63;;;14.75;100.00
75640;BME280;64233;51.486;6.332;2023-08-17T04:59:38;101662.22;;;14.75;100.00
75640;BME280;64233;51.486;6.332;2023-08-17T05:02:04;101664.91;;;14.75;100.00
75640;BME280;64233;51.486;6.332;2023-08-17T05:04:32;101660.03;;;14.72;100.00
75640;BME280;64233;51.486;6.332;2023-08-17T05:06:57;101659.78;;;14.73;100.00
75640;BME280;64233;51.486;6.332;2023-08-17T05:09:23;101662.75;;;14.72;100.00
75640;BME280;64233;51.486;6.332;2023-08-17T05:11:48;101660.03;;;14.72;100.00
75640;BME280;64233;51.486;6.332;2023-08-17T05:14:13;101657.34;;;14.72;100.00
75640;BME280;64233;51.486;6.332;2023-08-17T05:16:39;101662.22;;;14.75;100.00
75640;BME280;64233;51.486;6.332;2023-08-17T05:19:04;101646.81;;;14.75;100.00
75640;BME280;64233;51.486;6.332;2023-08-17T05:21:29;101658.19;;;14.77;100.00
75640;BME280;64233;51.486;6.332;2023-08-17T05:23:55;101660.63;;;14.79;100.00
75640;BME280;64233;51.486;6.332;2023-08-17T05:26:21;101662.75;;;14.77;100.00
75640;BME280;64233;51.486;6.332;2023-08-17T05:28:46;101657.63;;;14.75;100.00
75640;BME280;64233;51.486;6.332;2023-08-17T05:31:12;101659.31;;;14.82;100.00
75640;BME280;64233;51.486;6.332;2023-08-17T05:33:37;101655.03;;;14.86;100.00
75640;BME280;64233;51.486;6.332;2023-08-17T05:36:02;101656.63;;;14.87;100.00
75640;BME280;64233;51.486;6.332;2023-08-17T05:38:28;101658.59;;;14.91;100.00
75640;BME280;64233;51.486;6.332;2023-08-17T05:40:57;101659.13;;;14.93;100.00
75640;BME280;64233;51.486;6.332;2023-08-17T05:43:24;101670.00;;;14.98;100.00
75640;BME280;64233;51.486;6.332;2023-08-17T05:45:49;101662.41;;;15.01;100.00
75640;BME280;64233;51.486;6.332;2023-08-17T05:48:15;101664.44;;;15.15;100.00
75640;BME280;64233;51.486;6.332;2023-08-17T05:50:43;101666.50;;;15.03;100.00
75640;BME280;64233;51.486;6.332;2023-08-17T05:53:08;101666.81;;;15.12;100.00
75640;BME280;64233;51.486;6.332;2023-08-17T05:55:34;101677.13;;;15.15;100.00
75640;BME280;64233;51.486;6.332;2023-08-17T05:57:59;101668.53;;;15.23;100.00
75640;BME280;64233;51.486;6.332;2023-08-17T06:00:24;101666.72;;;15.39;100.00
75640;BME280;64233;51.486;6.332;2023-08-17T06:02:50;101668.31;;;15.35;100.00
75640;BME280;64233;51.486;6.332;2023-08-17T06:05:17;101668.66;;;15.44;100.00
75640;BME280;64233;51.486;6.332;2023-08-17T06:07:42;101674.56;;;15.41;100.00
75640;BME280;64233;51.486;6.332;2023-08-17T06:10:08;101671.13;;;15.50;100.00
75640;BME280;64233;51.486;6.332;2023-08-17T06:12:34;101669.00;;;15.53;100.00
75640;BME280;64233;51.486;6.332;2023-08-17T06:15:01;101674.13;;;15.54;100.00
75640;BME280;64233;51.486;6.332;2023-08-17T06:17:26;101669.56;;;15.60;100.00
75640;BME280;64233;51.486;6.332;2023-08-17T06:19:51;101675.59;;;15.72;100.00
75640;BME280;64233;51.486;6.332;2023-08-17T06:22:17;101670.44;;;15.76;100.00
75640;BME280;64233;51.486;6.332;2023-08-17T06:24:42;101663.66;;;15.73;100.00
75640;BME280;64233;51.486;6.332;2023-08-17T06:27:07;101670.25;;;15.82;100.00
75640;BME280;64233;51.486;6.332;2023-08-17T06:29:32;101661.56;;;15.80;100.00
75640;BME280;64233;51.486;6.332;2023-08-17T06:31:58;101663.66;;;15.73;100.00
75640;BME280;64233;51.486;6.332;2023-08-17T06:34:23;101668.88;;;15.80;100.00
75640;BME280;64233;51.486;6.332;2023-08-17T06:37:02;101664.50;;;15.74;100.00
75640;BME280;64233;51.486;6.332;2023-08-17T06:39:27;101661.34;;;15.92;100.00
75640;BME280;64233;51.486;6.332;2023-08-17T06:41:53;101665.66;;;15.93;100.00
75640;BME280;64233;51.486;6.332;2023-08-17T06:44:18;101667.81;;;15.86;100.00
75640;BME280;64233;51.486;6.332;2023-08-17T06:46:43;101666.72;;;15.87;100.00
75640;BME280;64233;51.486;6.332;2023-08-17T06:49:10;101670.84;;;16.00;100.00
75640;BME280;64233;51.486;6.332;2023-08-17T06:51:35;101661.91;;;15.99;100.00
75640;BME280;64233;51.486;6.332;2023-08-17T06:54:00;101678.16;;;16.05;100.00
75640;BME280;64233;51.486;6.332;2023-08-17T06:56:26;101673.00;;;16.03;100.00
75640;BME280;64233;51.486;6.332;2023-08-17T06:58:51;101670.63;;;16.17;100.00
75640;BME280;64233;51.486;6.332;2023-08-17T07:01:16;101664.88;;;16.03;100.00
75640;BME280;64233;51.486;6.332;2023-08-17T07:03:41;101664.31;;;15.96;100.00
75640;BME280;64233;51.486;6.332;2023-08-17T07:06:08;101665.97;;;16.07;100.00
75640;BME280;64233;51.486;6.332;2023-08-17T07:08:34;101665.19;;;16.07;100.00
75640;BME280;64233;51.486;6.332;2023-08-17T07:10:59;101668.41;;;16.09;100.00
75640;BME280;64233;51.486;6.332;2023-08-17T07:13:25;101674.09;;;16.07;100.00
75640;BME280;64233;51.486;6.332;2023-08-17T07:15:50;101668.66;;;15.97;100.00
75640;BME280;64233;51.486;6.332;2023-08-17T07:18:15;101672.50;;;16.06;100.00
75640;BME280;64233;51.486;6.332;2023-08-17T07:20:41;101671.91;;;15.99;100.00
75640;BME280;64233;51.486;6.332;2023-08-17T07:23:06;101667.59;;;15.98;100.00
75640;BME280;64233;51.486;6.332;2023-08-17T07:25:31;101691.47;;;16.11;100.00
75640;BME280;64233;51.486;6.332;2023-08-17T07:27:57;101682.78;;;16.14;100.00
75640;BME280;64233;51.486;6.332;2023-08-17T07:30:23;101688.16;;;15.99;100.00
75640;BME280;64233;51.486;6.332;2023-08-17T07:32:48;101689.56;;;16.07;100.00
75640;BME280;64233;51.486;6.332;2023-08-17T07:35:13;101686.53;;;16.03;100.00
75640;BME280;64233;51.486;6.332;2023-08-17T07:37:39;101683.03;;;16.03;100.00
75640;BME280;64233;51.486;6.332;2023-08-17T07:40:04;101689.56;;;16.07;100.00
75640;BME280;64233;51.486;6.332;2023-08-17T07:42:30;101688.75;;;16.06;100.00
75640;BME280;64233;51.486;6.332;2023-08-17T07:44:55;101695.22;;;16.10;100.00
75640;BME280;64233;51.486;6.332;2023-08-17T07:47:20;101700.34;;;16.01;100.00
75640;BME280;64233;51.486;6.332;2023-08-17T07:49:46;101700.91;;;16.09;100.00
75640;BME280;64233;51.486;6.332;2023-08-17T07:52:11;101693.59;;;16.04;100.00
75640;BME280;64233;51.486;6.332;2023-08-17T07:54:36;101686.03;;;16.11;100.00
75640;BME280;64233;51.486;6.332;2023-08-17T07:57:02;101693.13;;;16.17;100.00
75640;BME280;64233;51.486;6.332;2023-08-17T07:59:28;101700.91;;;16.09;100.00
75640;BME280;64233;51.486;6.332;2023-08-17T08:01:54;101697.41;;;16.08;100.00
75640;BME280;64233;51.486;6.332;2023-08-17T08:04:19;101701.75;;;16.09;100.00
75640;BME280;64233;51.486;6.332;2023-08-17T08:06:45;101706.06;;;16.05;100.00
75640;BME280;64233;51.486;6.332;2023-08-17T08:09:11;101708.75;;;16.00;100.00
75640;BME280;64233;51.486;6.332;2023-08-17T08:11:36;101708.75;;;16.00;100.00
75640;BME280;64233;51.486;6.332;2023-08-17T08:14:01;101707.94;;;15.99;100.00
75640;BME280;64233;51.486;6.332;2023-08-17T08:16:27;101702.78;;;16.03;100.00
75640;BME280;64233;51.486;6.332;2023-08-17T08:18:55;101706.31;;;15.98;100.00
75640;BME280;64233;51.486;6.332;2023-08-17T08:21:20;101709.88;;;16.09;100.00
75640;BME280;64233;51.486;6.332;2023-08-17T08:23:46;101716.41;;;16.18;100.00
75640;BME280;64233;51.486;6.332;2023-08-17T08:26:11;101714.50;;;16.14;100.00
75640;BME280;64233;51.486;6.332;2023-08-17T08:28:36;101716.41;;;16.13;100.00
75640;BME280;64233;51.486;6.332;2023-08-17T08:31:02;101719.66;;;16.21;100.00
75640;BME280;64233;51.486;6.332;2023-08-17T08:33:31;101721.31;;;16.27;100.00
75640;BME280;64233;51.486;6.332;2023-08-17T08:35:56;101732.13;;;16.27;100.00
75640;BME280;64233;51.486;6.332;2023-08-17T08:38:22;101722.91;;;16.23;100.00
75640;BME280;64233;51.486;6.332;2023-08-17T08:40:47;101719.66;;;16.26;100.00
75640;BME280;64233;51.486;6.332;2023-08-17T08:43:14;101716.72;;;16.32;100.00
75640;BME280;64233;51.486;6.332;2023-08-17T08:45:41;101715.06;;;16.31;100.00
75640;BME280;64233;51.486;6.332;2023-08-17T08:48:08;101717.28;;;16.34;100.00
75640;BME280;64233;51.486;6.332;2023-08-17T08:50:35;101705.59;;;16.34;100.00
75640;BME280;64233;51.486;6.332;2023-08-17T08:53:02;101712.13;;;16.38;100.00
75640;BME280;64233;51.486;6.332;2023-08-17T08:55:36;101704.25;;;16.37;100.00
75640;BME280;64233;51.486;6.332;2023-08-17T08:58:04;101708.06;;;16.35;100.00
75640;BME280;64233;51.486;6.332;2023-08-17T09:00:30;101709.94;;;16.25;100.00
75640;BME280;64233;51.486;6.332;2023-08-17T09:02:57;101711.28;;;16.32;100.00
75640;BME280;64233;51.486;6.332;2023-08-17T09:05:24;101708.31;;;16.34;100.00
75640;BME280;64233;51.486;6.332;2023-08-17T09:07:52;101714.56;;;16.34;100.00
75640;BME280;64233;51.486;6.332;2023-08-17T09:10:17;101703.16;;;16.32;100.00
75640;BME280;64233;51.486;6.332;2023-08-17T09:12:45;101706.16;;;16.41;100.00
75640;BME280;64233;51.486;6.332;2023-08-17T09:15:11;101707.78;;;16.37;100.00
75640;BME280;64233;51.486;6.332;2023-08-17T09:17:37;101703.47;;;16.36;100.00
75640;BME280;64233;51.486;6.332;2023-08-17T09:20:03;101705.91;;;16.38;100.00
75640;BME280;64233;51.486;6.332;2023-08-17T09:22:40;101695.88;;;16.38;100.00
75640;BME280;64233;51.486;6.332;2023-08-17T09:25:07;101693.16;;;16.38;100.00
75640;BME280;64233;51.486;6.332;2023-08-17T09:27:33;101701.59;;;16.42;100.00
75640;BME280;64233;51.486;6.332;2023-08-17T09:30:10;101694.50;;;16.35;100.00
75640;BME280;64233;51.486;6.332;2023-08-17T09:32:36;101693.69;;;16.35;100.00
75640;BME280;64233;51.486;6.332;2023-08-17T09:35:02;101698.84;;;16.37;100.00
75640;BME280;64233;51.486;6.332;2023-08-17T09:37:29;101699.66;;;16.37;100.00
75640;BME280;64233;51.486;6.332;2023-08-17T09:39:55;101695.88;;;16.38;100.00
75640;BME280;64233;51.486;6.332;2023-08-17T09:42:21;101696.44;;;16.45;100.00
75640;BME280;64233;51.486;6.332;2023-08-17T09:44:51;101699.72;;;16.58;100.00
75640;BME280;64233;51.486;6.332;2023-08-17T09:47:17;101682.38;;;16.59;100.00
75640;BME280;64233;51.486;6.332;2023-08-17T09:49:48;101688.88;;;16.68;100.00
75640;BME280;64233;51.486;6.332;2023-08-17T09:52:13;101682.63;;;16.73;100.00
75640;BME280;64233;51.486;6.332;2023-08-17T09:54:39;101669.63;;;16.59;100.00
75640;BME280;64233;51.486;6.332;2023-08-17T09:57:05;101678.31;;;16.66;100.00
75640;BME280;64233;51.486;6.332;2023-08-17T09:59:31;101684.03;;;16.85;100.00
75640;BME280;64233;51.486;6.332;2023-08-17T10:01:58;101685.66;;;16.92;100.00
75640;BME280;64233;51.486;6.332;2023-08-17T10:04:25;101680.78;;;16.94;100.00
75640;BME280;64233;51.486;6.332;2023-08-17T10:07:00;101676.16;;;16.99;100.00
75640;BME280;64233;51.486;6.332;2023-08-17T10:09:36;101670.47;;;16.91;100.00
75640;BME280;64233;51.486;6.332;2023-08-17T10:12:05;101668.81;;;16.79;100.00
75640;BME280;64233;51.486;6.332;2023-08-17T10:14:36;101670.47;;;16.96;100.00
75640;BME280;64233;51.486;6.332;2023-08-17T10:17:08;101671.28;;;17.01;100.00
75640;BME280;64233;51.486;6.332;2023-08-17T10:19:52;101673.72;;;17.18;100.00
75640;BME280;64233;51.486;6.332;2023-08-17T10:24:50;101669.34;;;17.33;100.00
75640;BME280;64233;51.486;6.332;2023-08-17T10:27:16;101673.91;;;17.58;100.00
75640;BME280;64233;51.486;6.332;2023-08-17T10:29:43;101661.44;;;17.42;100.00
75640;BME280;64233;51.486;6.332;2023-08-17T10:32:08;101660.41;;;17.22;100.00
75640;BME280;64233;51.486;6.332;2023-08-17T10:34:34;101652.56;;;17.10;100.00
75640;BME280;64233;51.486;6.332;2023-08-17T10:37:01;101655.81;;;17.23;100.00
75640;BME280;64233;51.486;6.332;2023-08-17T10:39:28;101656.03;;;17.42;100.00
75640;BME280;64233;51.486;6.332;2023-08-17T10:41:55;101652.22;;;17.37;100.00
75640;BME280;64233;51.486;6.332;2023-08-17T10:44:46;101651.16;;;17.44;100.00
75640;BME280;64233;51.486;6.332;2023-08-17T10:47:31;101656.81;;;17.52;100.00
75640;BME280;64233;51.486;6.332;2023-08-17T10:50:01;101650.25;;;17.64;100.00
75640;BME280;64233;51.486;6.332;2023-08-17T10:52:32;101652.75;;;17.55;100.00
75640;BME280;64233;51.486;6.332;2023-08-17T10:55:08;101658.66;;;17.67;100.00
75640;BME280;64233;51.486;6.332;2023-08-17T10:57:38;101647.56;;;17.53;100.00
75640;BME280;64233;51.486;6.332;2023-08-17T11:00:18;101651.84;;;17.70;100.00
75640;BME280;64233;51.486;6.332;2023-08-17T11:02:55;101651.78;;;17.96;100.00
75640;BME280;64233;51.486;6.332;2023-08-17T11:05:47;101656.16;;;17.81;100.00
75640;BME280;64233;51.486;6.332;2023-08-17T11:08:38;101658.88;;;17.81;100.00
75640;BME280;64233;51.486;6.332;2023-08-17T11:11:09;101653.97;;;17.94;100.00
75640;BME280;64233;51.486;6.332;2023-08-17T11:13:39;101657.13;;;18.11;100.00
75640;BME280;64233;51.486;6.332;2023-08-17T11:16:06;101661.75;;;18.11;100.00
75640;BME280;64233;51.486;6.332;2023-08-17T11:18:35;101663.91;;;18.09;100.00
75640;BME280;64233;51.486;6.332;2023-08-17T11:21:02;101661.53;;;18.02;100.00
75640;BME280;64233;51.486;6.332;2023-08-17T11:23:29;101662.66;;;17.80;100.00
75640;BME280;64233;51.486;6.332;2023-08-17T11:25:55;101667.28;;;17.85;100.00
75640;BME280;64233;51.486;6.332;2023-08-17T11:28:21;101665.38;;;17.80;100.00
75640;BME280;64233;51.486;6.332;2023-08-17T11:30:57;101672.47;;;17.76;100.00
75640;BME280;64233;51.486;6.332;2023-08-17T11:33:23;101666.47;;;17.84;100.00
75640;BME280;64233;51.486;6.332;2023-08-17T11:35:48;101667.78;;;17.97;100.00
75640;BME280;64233;51.486;6.332;2023-08-17T11:38:15;101669.91;;;18.11;100.00
75640;BME280;64233;51.486;6.332;2023-08-17T11:40:40;101664.44;;;18.16;100.00
75640;BME280;64233;51.486;6.332;2023-08-17T11:43:05;101670.72;;;18.11;100.00
75640;BME280;64233;51.486;6.332;2023-08-17T11:45:31;101672.94;;;17.99;100.00
75640;BME280;64233;51.486;6.332;2023-08-17T11:47:57;101673.78;;;17.99;100.00
75640;BME280;64233;51.486;6.332;2023-08-17T11:50:24;101670.25;;;17.88;100.00
75640;BME280;64233;51.486;6.332;2023-08-17T11:52:49;101666.97;;;17.97;100.00
75640;BME280;64233;51.486;6.332;2023-08-17T11:55:16;101665.91;;;17.98;100.00
75640;BME280;64233;51.486;6.332;2023-08-17T11:57:45;101665.91;;;17.98;100.00
75640;BME280;64233;51.486;6.332;2023-08-17T12:00:17;101662.69;;;17.91;100.00
75640;BME280;64233;51.486;6.332;2023-08-17T12:02:43;101658.28;;;18.00;100.00
75640;BME280;64233;51.486;6.332;2023-08-17T12:05:08;101661.53;;;18.02;100.00
75640;BME280;64233;51.486;6.332;2023-08-17T12:07:34;101662.91;;;17.99;100.00
75640;BME280;64233;51.486;6.332;2023-08-17T12:10:02;101657.25;;;17.91;100.00
75640;BME280;64233;51.486;6.332;2023-08-17T12:12:28;101656.63;;;18.04;100.00
75640;BME280;64233;51.486;6.332;2023-08-17T12:14:53;101648.75;;;18.08;100.00
75640;BME280;64233;51.486;6.332;2023-08-17T12:17:20;101656.53;;;18.24;100.00
75640;BME280;64233;51.486;6.332;2023-08-17T12:19:49;101652.75;;;18.20;100.00
75640;BME280;64233;51.486;6.332;2023-08-17T12:22:16;101648.81;;;18.37;100.00
75640;BME280;64233;51.486;6.332;2023-08-17T12:24:42;101656.69;;;18.38;100.00
75640;BME280;64233;51.486;6.332;2023-08-17T12:27:09;101659.25;;;18.24;100.00
75640;BME280;64233;51.486;6.332;2023-08-17T12:29:46;101653.53;;;18.26;100.00
75640;BME280;64233;51.486;6.332;2023-08-17T12:32:13;101656.16;;;18.36;100.00
75640;BME280;64233;51.486;6.332;2023-08-17T12:34:39;101659.28;;;18.54;100.00
75640;BME280;64233;51.486;6.332;2023-08-17T12:37:04;101666.38;;;18.50;100.00
75640;BME280;64233;51.486;6.332;2023-08-17T12:39:29;101659.38;;;18.44;100.00
75640;BME280;64233;51.486;6.332;2023-08-17T12:41:54;101659.63;;;18.47;100.00